createdAt,value
2017-09-30T00:01:31.980Z,81.20
2017-09-30T00:03:58.371Z,81.10
2017-09-30T00:06:24.791Z,81.70
2017-09-30T00:08:51.211Z,81.00
2017-09-30T00:11:17.603Z,79.70
2017-09-30T00:13:44.015Z,80.60
2017-09-30T00:16:10.390Z,80.00
2017-09-30T00:18:36.790Z,80.80
2017-09-30T00:21:03.959Z,80.10
2017-09-30T00:23:30.380Z,80.10
2017-09-30T00:25:57.500Z,82.00
2017-09-30T00:28:23.938Z,81.90
2017-09-30T00:30:50.398Z,81.10
2017-09-30T00:33:17.519Z,79.60
2017-09-30T00:35:43.999Z,79.60
2017-09-30T00:38:10.423Z,79.30
2017-09-30T00:40:36.836Z,81.10
2017-09-30T00:43:04.107Z,79.50
2017-09-30T00:45:30.507Z,79.50
2017-09-30T00:47:56.908Z,80.10
2017-09-30T00:50:23.328Z,80.20
2017-09-30T00:52:50.672Z,79.90
2017-09-30T00:55:17.160Z,80.00
2017-09-30T00:57:43.600Z,79.50
2017-09-30T01:00:10.810Z,80.00
2017-09-30T01:02:37.232Z,79.80
2017-09-30T01:05:03.623Z,80.30
2017-09-30T01:07:30.060Z,79.80
2017-09-30T01:09:57.279Z,80.30
2017-09-30T01:12:25.411Z,79.30
2017-09-30T01:14:51.836Z,79.30
2017-09-30T01:17:18.254Z,79.00
2017-09-30T01:19:45.463Z,80.60
2017-09-30T01:22:11.939Z,80.60
2017-09-30T01:24:39.142Z,80.30
2017-09-30T01:27:05.607Z,80.30
2017-09-30T01:29:32.036Z,80.10
2017-09-30T01:31:58.484Z,80.10
2017-09-30T01:34:25.703Z,78.50
2017-09-30T01:36:52.136Z,78.50
2017-09-30T01:39:18.595Z,80.10
2017-09-30T01:41:45.028Z,79.10
2017-09-30T01:44:11.439Z,81.20
2017-09-30T01:46:37.884Z,80.40
2017-09-30T01:49:04.464Z,79.50
2017-09-30T01:51:30.909Z,79.40
2017-09-30T01:53:57.378Z,80.20
2017-09-30T01:56:23.840Z,79.60
2017-09-30T01:58:50.999Z,79.50
2017-09-30T02:01:18.232Z,79.40
2017-09-30T02:03:44.705Z,79.30
2017-09-30T02:06:11.138Z,80.80
2017-09-30T02:08:37.582Z,79.70
2017-09-30T02:11:04.036Z,79.80
2017-09-30T02:13:30.495Z,79.80
2017-09-30T02:15:56.936Z,79.00
2017-09-30T02:18:23.363Z,78.60
2017-09-30T02:20:49.807Z,79.60
2017-09-30T02:23:16.983Z,80.00
2017-09-30T02:25:43.364Z,80.00
2017-09-30T02:28:09.817Z,79.60
2017-09-30T02:30:37.009Z,81.30
2017-09-30T02:33:03.414Z,81.30
2017-09-30T02:35:30.631Z,80.80
2017-09-30T02:37:57.009Z,80.80
2017-09-30T02:40:23.410Z,80.60
2017-09-30T02:42:49.963Z,80.30
2017-09-30T02:45:16.380Z,80.80
2017-09-30T02:47:44.445Z,80.90
2017-09-30T02:50:10.878Z,80.80
2017-09-30T02:52:37.291Z,80.30
2017-09-30T02:55:03.704Z,80.90
2017-09-30T02:57:30.109Z,81.40
2017-09-30T02:59:56.543Z,81.60
2017-09-30T03:02:22.930Z,81.50
2017-09-30T03:04:49.357Z,81.00
2017-09-30T03:07:15.805Z,80.80
2017-09-30T03:09:42.340Z,81.30
2017-09-30T03:12:08.752Z,80.60
2017-09-30T03:14:35.151Z,81.20
2017-09-30T03:17:01.584Z,81.10
2017-09-30T03:19:28.007Z,82.30
2017-09-30T03:21:54.548Z,82.80
2017-09-30T03:24:20.961Z,80.80
2017-09-30T03:26:48.094Z,80.60
2017-09-30T03:29:14.490Z,80.60
2017-09-30T03:31:40.911Z,80.50
2017-09-30T03:34:07.366Z,80.30
2017-09-30T03:36:33.782Z,79.50
2017-09-30T03:39:00.170Z,79.30
2017-09-30T03:41:27.339Z,81.50
2017-09-30T03:43:53.716Z,81.50
2017-09-30T03:46:20.128Z,80.60
2017-09-30T03:48:46.563Z,81.00
2017-09-30T03:51:12.961Z,80.90
2017-09-30T03:53:40.142Z,80.90
2017-09-30T03:56:06.564Z,80.70
2017-09-30T03:58:32.974Z,79.60
2017-09-30T04:01:00.111Z,81.40
2017-09-30T04:03:27.232Z,81.00
2017-09-30T04:05:53.676Z,80.90
2017-09-30T04:08:20.111Z,81.00
2017-09-30T04:10:46.531Z,81.90
2017-09-30T04:13:12.930Z,82.10
2017-09-30T04:15:39.363Z,81.90
2017-09-30T04:18:05.823Z,82.00
2017-09-30T04:20:32.231Z,82.30
2017-09-30T04:22:58.648Z,81.90
2017-09-30T04:25:25.096Z,83.30
2017-09-30T04:27:51.510Z,83.00
2017-09-30T04:30:17.939Z,83.20
2017-09-30T04:32:45.066Z,82.70
2017-09-30T04:35:11.612Z,82.70
2017-09-30T04:37:38.031Z,83.00
2017-09-30T04:40:04.446Z,83.30
2017-09-30T04:42:31.611Z,83.00
2017-09-30T04:44:57.997Z,83.10
2017-09-30T04:47:24.387Z,83.90
2017-09-30T04:49:51.558Z,84.40
2017-09-30T04:52:17.953Z,83.70
2017-09-30T04:54:44.423Z,83.20
2017-09-30T04:57:11.591Z,82.60
2017-09-30T04:59:38.039Z,82.50
2017-09-30T05:02:04.895Z,83.10
2017-09-30T05:04:32.307Z,83.10
2017-09-30T05:06:58.757Z,83.10
2017-09-30T05:09:25.314Z,82.10
2017-09-30T05:11:52.625Z,82.30
2017-09-30T05:14:19.035Z,82.10
2017-09-30T05:16:45.413Z,82.00
2017-09-30T05:19:11.818Z,82.50
2017-09-30T05:21:38.215Z,82.70
2017-09-30T05:24:04.754Z,82.70
2017-09-30T05:26:31.227Z,82.60
2017-09-30T05:28:57.640Z,81.80
2017-09-30T05:31:24.778Z,81.20
2017-09-30T05:33:51.227Z,81.00
2017-09-30T05:36:18.383Z,80.60
2017-09-30T05:38:45.508Z,81.00
2017-09-30T05:41:12.029Z,81.00
2017-09-30T05:43:38.437Z,81.20
2017-09-30T05:46:04.910Z,80.20
2017-09-30T05:48:32.109Z,80.20
2017-09-30T05:50:58.523Z,80.20
2017-09-30T05:53:25.803Z,79.50
2017-09-30T05:55:52.190Z,79.30
2017-09-30T05:58:18.612Z,80.60
2017-09-30T06:00:45.069Z,80.40
2017-09-30T06:03:12.231Z,78.90
2017-09-30T06:05:38.660Z,78.90
2017-09-30T06:08:05.093Z,78.80
2017-09-30T06:10:31.526Z,78.80
2017-09-30T06:12:58.662Z,80.30
2017-09-30T06:15:25.846Z,79.10
2017-09-30T06:17:52.276Z,79.20
2017-09-30T06:20:18.687Z,76.50
2017-09-30T06:22:45.230Z,77.20
2017-09-30T06:25:11.646Z,77.10
2017-09-30T06:27:38.772Z,78.80
2017-09-30T06:30:05.203Z,78.70
2017-09-30T06:32:31.575Z,79.00
2017-09-30T06:34:57.998Z,78.70
2017-09-30T06:37:25.139Z,76.70
2017-09-30T06:39:52.279Z,76.70
2017-09-30T06:42:18.680Z,76.70
2017-09-30T06:44:45.948Z,76.00
2017-09-30T06:47:12.366Z,76.80
2017-09-30T06:49:38.755Z,73.80
2017-09-30T06:52:05.299Z,76.50
2017-09-30T06:54:32.092Z,76.50
2017-09-30T06:56:58.728Z,75.50
2017-09-30T06:59:25.111Z,73.80
2017-09-30T07:01:51.663Z,74.90
2017-09-30T07:04:18.051Z,75.10
2017-09-30T07:06:44.464Z,75.80
2017-09-30T07:09:10.902Z,75.30
2017-09-30T07:11:37.304Z,75.40
2017-09-30T07:14:03.691Z,75.90
2017-09-30T07:16:30.850Z,71.60
2017-09-30T07:18:57.984Z,72.10
2017-09-30T07:21:24.443Z,71.90
2017-09-30T07:23:50.927Z,70.40
2017-09-30T07:26:17.320Z,69.30
2017-09-30T07:28:43.743Z,69.80
2017-09-30T07:31:10.199Z,67.70
2017-09-30T07:33:36.595Z,65.90
2017-09-30T07:36:03.769Z,66.00
2017-09-30T07:38:30.172Z,66.00
2017-09-30T07:40:57.332Z,67.90
2017-09-30T07:43:23.753Z,67.80
2017-09-30T07:45:51.008Z,69.00
2017-09-30T07:48:18.154Z,68.80
2017-09-30T07:50:45.288Z,68.20
2017-09-30T07:53:11.687Z,68.20
2017-09-30T07:55:38.091Z,69.10
2017-09-30T07:58:04.516Z,68.00
2017-09-30T08:00:30.960Z,67.40
2017-09-30T08:02:57.343Z,63.60
2017-09-30T08:05:23.745Z,66.40
2017-09-30T08:07:50.145Z,68.70
2017-09-30T08:10:16.574Z,68.00
2017-09-30T08:12:43.828Z,64.90
2017-09-30T08:15:10.967Z,63.20
2017-09-30T08:17:38.100Z,66.70
2017-09-30T08:20:04.578Z,66.60
2017-09-30T08:22:30.978Z,64.60
2017-09-30T08:24:58.135Z,64.50
2017-09-30T08:27:25.246Z,65.20
2017-09-30T08:29:51.656Z,65.30
2017-09-30T08:32:18.063Z,62.00
2017-09-30T08:34:44.471Z,59.50
2017-09-30T08:37:11.715Z,58.70
2017-09-30T08:39:38.863Z,60.90
2017-09-30T08:42:05.295Z,60.90
2017-09-30T08:44:31.727Z,62.50
2017-09-30T08:46:58.143Z,56.60
2017-09-30T08:49:24.579Z,58.50
2017-09-30T08:51:51.015Z,61.70
2017-09-30T08:54:17.460Z,60.50
2017-09-30T08:56:43.927Z,58.70
2017-09-30T08:59:10.312Z,56.60
2017-09-30T09:01:36.748Z,59.60
2017-09-30T09:04:03.158Z,60.50
2017-09-30T09:06:29.555Z,60.40
2017-09-30T09:08:55.987Z,60.50
2017-09-30T09:11:23.120Z,55.80
2017-09-30T09:13:50.287Z,57.20
2017-09-30T09:16:16.675Z,57.20
2017-09-30T09:18:43.052Z,56.20
2017-09-30T09:21:09.451Z,56.90
2017-09-30T09:23:35.877Z,57.70
2017-09-30T09:26:02.258Z,57.00
2017-09-30T09:28:28.707Z,55.30
2017-09-30T09:30:55.108Z,55.80
2017-09-30T09:33:22.245Z,55.80
2017-09-30T09:35:49.402Z,54.90
2017-09-30T09:38:16.531Z,54.50
2017-09-30T09:40:42.998Z,54.40
2017-09-30T09:43:09.392Z,54.70
2017-09-30T09:45:35.791Z,56.40
2017-09-30T09:48:02.207Z,55.40
2017-09-30T09:50:28.611Z,53.30
2017-09-30T09:52:55.734Z,50.60
2017-09-30T09:55:22.156Z,50.50
2017-09-30T09:57:48.591Z,52.10
2017-09-30T10:00:15.072Z,53.20
2017-09-30T10:02:42.191Z,52.30
2017-09-30T10:05:08.742Z,52.30
2017-09-30T10:07:35.928Z,50.90
2017-09-30T10:10:03.810Z,50.90
2017-09-30T10:12:30.230Z,52.10
2017-09-30T10:14:56.630Z,53.40
2017-09-30T10:17:23.771Z,51.10
2017-09-30T10:19:50.977Z,52.20
2017-09-30T10:22:17.398Z,52.00
2017-09-30T10:24:43.842Z,50.90
2017-09-30T10:27:10.338Z,48.00
2017-09-30T10:29:37.509Z,51.40
2017-09-30T10:32:03.939Z,51.30
2017-09-30T10:34:30.347Z,51.90
2017-09-30T10:36:57.462Z,51.50
2017-09-30T10:39:23.836Z,51.50
2017-09-30T10:41:51.015Z,51.00
2017-09-30T10:44:17.463Z,51.00
2017-09-30T10:46:43.943Z,51.50
2017-09-30T10:49:10.456Z,51.50
2017-09-30T10:51:37.630Z,47.90
2017-09-30T10:54:04.760Z,50.80
2017-09-30T10:56:31.163Z,50.80
2017-09-30T10:58:57.531Z,48.80
2017-09-30T11:01:23.947Z,49.10
2017-09-30T11:03:50.490Z,47.50
2017-09-30T11:06:16.887Z,46.80
2017-09-30T11:08:43.359Z,48.60
2017-09-30T11:11:09.812Z,49.10
2017-09-30T11:13:37.019Z,47.70
2017-09-30T11:16:03.456Z,47.70
2017-09-30T11:18:29.839Z,49.90
2017-09-30T11:20:56.980Z,46.60
2017-09-30T11:23:24.118Z,45.70
2017-09-30T11:25:50.522Z,45.70
2017-09-30T11:28:16.983Z,44.60
2017-09-30T11:30:43.390Z,44.60
2017-09-30T11:33:09.790Z,44.60
2017-09-30T11:35:36.342Z,45.20
2017-09-30T11:38:02.859Z,43.80
2017-09-30T11:40:29.290Z,43.40
2017-09-30T11:42:55.712Z,43.50
2017-09-30T11:45:22.104Z,41.40
2017-09-30T11:47:48.504Z,42.40
2017-09-30T11:50:14.927Z,41.60
2017-09-30T11:52:41.314Z,43.50
2017-09-30T11:55:07.728Z,46.80
2017-09-30T11:57:34.095Z,44.00
2017-09-30T12:00:01.243Z,43.50
2017-09-30T12:02:27.663Z,43.50
2017-09-30T12:04:54.781Z,45.40
2017-09-30T12:07:21.217Z,45.90
2017-09-30T12:09:47.658Z,45.20
2017-09-30T12:12:14.190Z,44.50
2017-09-30T12:14:40.612Z,46.00
2017-09-30T12:17:07.006Z,44.10
2017-09-30T12:19:33.532Z,43.50
2017-09-30T12:22:00.666Z,47.00
2017-09-30T12:24:27.806Z,45.00
2017-09-30T12:26:54.221Z,45.00
2017-09-30T12:29:20.660Z,46.50
2017-09-30T12:31:47.168Z,47.40
2017-09-30T12:34:13.733Z,46.70
2017-09-30T12:36:40.199Z,45.90
2017-09-30T12:39:06.628Z,47.30
2017-09-30T12:41:33.944Z,47.10
2017-09-30T12:44:01.100Z,45.20
2017-09-30T12:46:27.527Z,45.80
2017-09-30T12:48:54.042Z,47.10
2017-09-30T12:51:20.428Z,46.90
2017-09-30T12:53:47.539Z,47.20
2017-09-30T12:56:13.958Z,47.20
2017-09-30T12:58:40.450Z,48.00
2017-09-30T13:01:07.210Z,50.00
2017-09-30T13:03:33.802Z,50.20
2017-09-30T13:06:01.015Z,52.70
2017-09-30T13:08:27.424Z,52.10
2017-09-30T13:10:53.859Z,54.70
2017-09-30T13:13:20.251Z,53.40
2017-09-30T13:15:46.791Z,53.90
2017-09-30T13:18:13.185Z,53.50
2017-09-30T13:20:39.733Z,52.90
2017-09-30T13:23:06.944Z,53.10
2017-09-30T13:25:33.330Z,53.10
2017-09-30T13:27:59.836Z,54.10
2017-09-30T13:30:26.262Z,52.80
2017-09-30T13:32:52.647Z,53.40
2017-09-30T13:35:19.835Z,52.60
2017-09-30T13:37:46.247Z,51.90
2017-09-30T13:40:13.504Z,53.20
2017-09-30T13:42:39.891Z,53.20
2017-09-30T13:45:07.426Z,53.30
2017-09-30T13:47:34.746Z,53.30
2017-09-30T13:50:01.995Z,52.70
2017-09-30T13:52:28.379Z,52.70
2017-09-30T13:54:54.975Z,53.30
2017-09-30T13:57:21.402Z,52.80
2017-09-30T13:59:47.807Z,54.70
2017-09-30T14:02:14.248Z,53.90
2017-09-30T14:04:41.404Z,53.00
2017-09-30T14:07:08.559Z,53.10
2017-09-30T14:09:35.737Z,54.80
2017-09-30T14:12:02.172Z,54.80
2017-09-30T14:14:28.694Z,55.10
2017-09-30T14:16:55.090Z,53.80
2017-09-30T14:19:21.531Z,53.70
2017-09-30T14:21:48.001Z,56.00
2017-09-30T14:24:14.414Z,55.10
2017-09-30T14:26:41.663Z,55.20
2017-09-30T14:29:08.111Z,55.30
2017-09-30T14:31:35.252Z,56.80
2017-09-30T14:34:01.671Z,56.80
2017-09-30T14:36:28.831Z,56.10
2017-09-30T14:38:55.982Z,57.90
2017-09-30T14:41:23.203Z,56.60
2017-09-30T14:43:50.344Z,58.20
2017-09-30T14:46:16.768Z,58.20
2017-09-30T14:48:43.191Z,55.70
2017-09-30T14:51:09.661Z,56.40
2017-09-30T14:53:36.055Z,57.50
2017-09-30T14:56:02.484Z,56.90
2017-09-30T14:58:29.027Z,55.60
2017-09-30T15:00:55.449Z,56.30
2017-09-30T15:03:21.865Z,57.50
2017-09-30T15:05:48.280Z,58.10
2017-09-30T15:08:15.422Z,56.60
2017-09-30T15:10:42.560Z,59.30
2017-09-30T15:13:08.971Z,59.20
2017-09-30T15:15:35.380Z,59.10
2017-09-30T15:18:01.906Z,59.40
2017-09-30T15:20:28.292Z,58.30
2017-09-30T15:22:54.672Z,58.10
2017-09-30T15:25:21.115Z,58.90
2017-09-30T15:27:47.499Z,58.10
2017-09-30T15:30:14.664Z,59.30
2017-09-30T15:32:41.055Z,59.30
2017-09-30T15:35:07.447Z,59.10
2017-09-30T15:37:33.867Z,58.00
2017-09-30T15:40:00.264Z,58.20
2017-09-30T15:42:26.688Z,56.90
2017-09-30T15:44:53.135Z,58.10
2017-09-30T15:47:19.631Z,56.80
2017-09-30T15:49:46.016Z,56.90
2017-09-30T15:52:13.137Z,58.00
2017-09-30T15:54:39.595Z,58.00
2017-09-30T15:57:06.039Z,59.20
2017-09-30T15:59:33.183Z,58.60
2017-09-30T16:02:00.395Z,58.70
2017-09-30T16:04:26.930Z,58.70
2017-09-30T16:06:53.299Z,56.60
2017-09-30T16:09:20.427Z,58.60
2017-09-30T16:11:46.846Z,58.60
2017-09-30T16:14:13.242Z,58.70
2017-09-30T16:16:39.679Z,59.40
2017-09-30T16:19:06.095Z,57.90
2017-09-30T16:21:32.623Z,59.20
2017-09-30T16:23:59.015Z,59.60
2017-09-30T16:26:25.419Z,59.20
2017-09-30T16:28:51.840Z,60.10
2017-09-30T16:31:18.231Z,60.00
2017-09-30T16:33:45.398Z,59.70
2017-09-30T16:36:12.510Z,60.40
2017-09-30T16:38:39.202Z,60.30
2017-09-30T16:41:05.658Z,60.20
2017-09-30T16:43:32.781Z,61.10
2017-09-30T16:45:59.177Z,60.90
2017-09-30T16:48:25.603Z,60.40
2017-09-30T16:50:52.007Z,58.60
2017-09-30T16:53:19.147Z,60.40
2017-09-30T16:55:45.707Z,60.40
2017-09-30T16:58:12.099Z,59.70
2017-09-30T17:00:38.488Z,60.10
2017-09-30T17:03:04.904Z,59.30
2017-09-30T17:05:31.347Z,58.80
2017-09-30T17:07:57.755Z,60.60
2017-09-30T17:10:24.231Z,60.50
2017-09-30T17:12:51.568Z,61.60
2017-09-30T17:15:18.007Z,61.60
2017-09-30T17:17:44.632Z,62.10
2017-09-30T17:20:11.811Z,63.70
2017-09-30T17:22:39.111Z,63.10
2017-09-30T17:25:05.656Z,63.10
2017-09-30T17:27:32.067Z,63.20
2017-09-30T17:29:58.492Z,63.20
2017-09-30T17:32:24.919Z,62.90
2017-09-30T17:34:51.307Z,62.50
2017-09-30T17:37:17.732Z,63.00
2017-09-30T17:39:44.121Z,62.90
2017-09-30T17:42:10.553Z,63.70
2017-09-30T17:44:36.960Z,63.20
2017-09-30T17:47:04.084Z,63.00
2017-09-30T17:49:30.596Z,62.90
2017-09-30T17:51:57.002Z,63.20
2017-09-30T17:54:23.398Z,63.50
2017-09-30T17:56:49.795Z,66.20
2017-09-30T17:59:16.182Z,67.10
2017-09-30T18:01:43.332Z,68.00
2017-09-30T18:04:10.459Z,67.60
2017-09-30T18:06:36.871Z,67.60
2017-09-30T18:09:03.446Z,68.50
2017-09-30T19:33:27.003Z,69.20
2017-09-30T19:35:53.395Z,71.20
2017-09-30T19:38:20.613Z,68.90
2017-09-30T19:40:47.148Z,68.90
2017-09-30T19:43:13.543Z,67.80
2017-09-30T19:45:39.932Z,69.30
2017-09-30T19:48:06.338Z,69.40
2017-09-30T19:50:32.727Z,70.40
2017-09-30T19:52:59.182Z,70.00
2017-09-30T19:55:25.568Z,70.40
2017-09-30T19:57:52.711Z,70.80
2017-09-30T20:00:19.249Z,70.70
2017-09-30T20:02:45.651Z,70.60
2017-09-30T20:05:12.044Z,70.10
2017-09-30T20:07:38.454Z,70.90
2017-09-30T20:10:05.703Z,71.70
2017-09-30T20:12:32.084Z,71.70
2017-09-30T20:14:58.489Z,71.60
2017-09-30T20:17:25.028Z,72.40
2017-09-30T20:19:51.428Z,72.40
2017-09-30T20:22:18.583Z,72.00
2017-09-30T20:24:45.730Z,71.60
2017-09-30T20:27:12.116Z,71.50
2017-09-30T20:29:38.616Z,70.80
2017-09-30T20:32:05.007Z,71.50
2017-09-30T20:34:31.404Z,72.30
2017-09-30T20:36:57.855Z,73.30
2017-09-30T20:39:24.284Z,71.80
2017-09-30T20:41:50.707Z,72.40
2017-09-30T20:44:17.088Z,72.80
2017-09-30T20:46:43.499Z,72.70
2017-09-30T20:49:10.616Z,71.60
2017-09-30T20:51:37.043Z,71.50
2017-09-30T20:54:03.439Z,72.00
2017-09-30T20:56:30.600Z,72.40
2017-09-30T20:58:57.719Z,73.20
2017-09-30T21:01:24.139Z,73.10
2017-09-30T21:03:50.576Z,74.00
2017-09-30T21:06:17.020Z,74.80
2017-09-30T21:08:43.425Z,74.30
2017-09-30T21:11:09.807Z,73.40
2017-09-30T21:13:36.976Z,75.80
2017-09-30T21:16:03.801Z,75.80
2017-09-30T21:18:30.397Z,75.50
2017-09-30T21:20:56.798Z,74.70
2017-09-30T21:23:23.228Z,74.80
2017-09-30T21:25:49.618Z,75.80
2017-09-30T21:28:16.036Z,75.00
2017-09-30T21:30:42.460Z,74.50
2017-09-30T21:33:08.876Z,74.20
2017-09-30T21:35:35.291Z,75.10
2017-09-30T21:38:01.719Z,74.00
2017-09-30T21:40:28.147Z,75.00
2017-09-30T21:42:54.555Z,74.40
2017-09-30T21:45:21.707Z,75.30
2017-09-30T21:47:48.868Z,75.20
2017-09-30T21:50:16.031Z,74.60
2017-09-30T21:52:42.459Z,74.60
2017-09-30T21:55:08.840Z,75.00
2017-09-30T21:57:36.093Z,74.90
2017-09-30T22:00:02.531Z,74.90
2017-09-30T22:02:28.947Z,75.00
2017-09-30T22:04:55.356Z,74.30
2017-09-30T22:07:21.745Z,74.20
2017-09-30T22:09:48.122Z,75.90
2017-09-30T22:12:14.554Z,76.00
2017-09-30T22:14:40.938Z,74.30
2017-09-30T22:17:07.475Z,76.50
2017-09-30T22:19:33.863Z,76.40
2017-09-30T22:22:00.259Z,76.40
2017-09-30T22:24:27.422Z,76.50
2017-09-30T22:26:54.571Z,76.10
2017-09-30T22:29:20.968Z,76.10
2017-09-30T22:31:47.492Z,76.00
2017-09-30T22:34:13.882Z,77.50
2017-09-30T22:36:40.266Z,77.30
2017-09-30T22:39:06.675Z,78.40
2017-09-30T22:41:33.052Z,78.10
2017-09-30T22:44:00.210Z,77.40
2017-09-30T22:46:27.334Z,77.20
2017-09-30T22:48:53.899Z,76.90
2017-09-30T22:51:20.295Z,77.40
2017-09-30T22:53:46.674Z,77.80
2017-09-30T22:56:13.087Z,78.90
2017-09-30T22:58:40.252Z,78.50
2017-09-30T23:01:06.659Z,79.30
2017-09-30T23:03:33.112Z,77.20
2017-09-30T23:05:59.584Z,77.60
2017-09-30T23:08:25.964Z,78.10
2017-09-30T23:10:53.155Z,79.80
2017-09-30T23:13:19.566Z,79.80
2017-09-30T23:15:45.983Z,79.80
2017-09-30T23:18:13.106Z,78.80
2017-09-30T23:20:39.515Z,78.80
2017-09-30T23:23:05.900Z,79.30
2017-09-30T23:25:33.144Z,78.80
2017-09-30T23:28:00.269Z,79.10
2017-09-30T23:30:26.722Z,79.10
2017-09-30T23:32:53.994Z,78.10
2017-09-30T23:35:21.137Z,77.80
2017-09-30T23:37:48.255Z,76.80
2017-09-30T23:40:14.682Z,76.70
2017-09-30T23:42:41.075Z,79.10
2017-09-30T23:45:07.598Z,79.00
2017-09-30T23:47:33.982Z,78.40
2017-09-30T23:50:01.092Z,79.70
2017-09-30T23:52:27.510Z,79.70
2017-09-30T23:54:53.887Z,79.80
2017-09-30T23:57:20.395Z,80.00
2017-09-30T23:59:46.790Z,79.20
